sensor_id;sensor_type;location;lat;lon;timestamp;P1;P2;P0
12542;PMS3003;6337;49.556;25.594;2023-04-15T00:01:07;8.13;6.20;
12542;PMS3003;6337;49.556;25.594;2023-04-15T00:03:36;8.70;6.70;
12542;PMS3003;6337;49.556;25.594;2023-04-15T00:06:04;7.20;6.23;
12542;PMS3003;6337;49.556;25.594;2023-04-15T00:08:33;7.13;6.43;
12542;PMS3003;6337;49.556;25.594;2023-04-15T00:11:01;14.23;10.03;
12542;PMS3003;6337;49.556;25.594;2023-04-15T00:13:30;11.60;7.27;
12542;PMS3003;6337;49.556;25.594;2023-04-15T00:16:01;7.03;6.33;
12542;PMS3003;6337;49.556;25.594;2023-04-15T00:18:31;8.60;7.37;
12542;PMS3003;6337;49.556;25.594;2023-04-15T00:20:59;10.10;6.60;
12542;PMS3003;6337;49.556;25.594;2023-04-15T00:23:30;11.67;7.40;
12542;PMS3003;6337;49.556;25.594;2023-04-15T00:25:58;11.33;6.97;
12542;PMS3003;6337;49.556;25.594;2023-04-15T00:28:29;9.30;7.53;
12542;PMS3003;6337;49.556;25.594;2023-04-15T00:31:00;8.07;7.27;
12542;PMS3003;6337;49.556;25.594;2023-04-15T00:33:28;10.53;8.80;
12542;PMS3003;6337;49.556;25.594;2023-04-15T00:35:57;10.30;8.07;
12542;PMS3003;6337;49.556;25.594;2023-04-15T00:38:25;11.10;8.37;
12542;PMS3003;6337;49.556;25.594;2023-04-15T00:40:53;12.63;8.93;
12542;PMS3003;6337;49.556;25.594;2023-04-15T00:43:22;12.30;8.63;
12542;PMS3003;6337;49.556;25.594;2023-04-15T00:45:51;11.03;8.00;
12542;PMS3003;6337;49.556;25.594;2023-04-15T00:48:21;8.87;7.93;
12542;PMS3003;6337;49.556;25.594;2023-04-15T00:50:49;10.27;7.50;
12542;PMS3003;6337;49.556;25.594;2023-04-15T00:53:17;14.33;10.07;
12542;PMS3003;6337;49.556;25.594;2023-04-15T00:55:47;15.50;10.70;
12542;PMS3003;6337;49.556;25.594;2023-04-15T00:58:15;16.63;9.33;
12542;PMS3003;6337;49.556;25.594;2023-04-15T01:00:43;17.00;9.80;
12542;PMS3003;6337;49.556;25.594;2023-04-15T01:03:11;13.00;9.30;
12542;PMS3003;6337;49.556;25.594;2023-04-15T01:05:41;11.40;8.07;
12542;PMS3003;6337;49.556;25.594;2023-04-15T01:08:09;11.93;9.87;
12542;PMS3003;6337;49.556;25.594;2023-04-15T01:10:37;7.23;6.53;
12542;PMS3003;6337;49.556;25.594;2023-04-15T01:13:07;10.47;8.23;
12542;PMS3003;6337;49.556;25.594;2023-04-15T01:15:35;8.33;7.30;
12542;PMS3003;6337;49.556;25.594;2023-04-15T01:18:03;11.07;8.97;
12542;PMS3003;6337;49.556;25.594;2023-04-15T01:20:35;10.53;7.63;
12542;PMS3003;6337;49.556;25.594;2023-04-15T01:23:08;12.23;8.30;
12542;PMS3003;6337;49.556;25.594;2023-04-15T01:25:40;10.53;8.23;
12542;PMS3003;6337;49.556;25.594;2023-04-15T01:28:08;11.10;7.77;
12542;PMS3003;6337;49.556;25.594;2023-04-15T01:30:36;8.20;7.40;
12542;PMS3003;6337;49.556;25.594;2023-04-15T01:33:05;9.87;7.37;
12542;PMS3003;6337;49.556;25.594;2023-04-15T01:35:32;8.07;7.13;
12542;PMS3003;6337;49.556;25.594;2023-04-15T01:38:02;9.70;7.80;
12542;PMS3003;6337;49.556;25.594;2023-04-15T01:40:32;14.00;8.40;
12542;PMS3003;6337;49.556;25.594;2023-04-15T01:43:01;8.93;7.50;
12542;PMS3003;6337;49.556;25.594;2023-04-15T01:45:29;11.03;9.03;
12542;PMS3003;6337;49.556;25.594;2023-04-15T01:47:57;9.07;7.13;
12542;PMS3003;6337;49.556;25.594;2023-04-15T01:50:24;12.77;8.40;
12542;PMS3003;6337;49.556;25.594;2023-04-15T01:52:52;13.40;8.00;
12542;PMS3003;6337;49.556;25.594;2023-04-15T01:55:19;11.07;8.00;
12542;PMS3003;6337;49.556;25.594;2023-04-15T01:57:47;18.83;9.33;
12542;PMS3003;6337;49.556;25.594;2023-04-15T02:00:17;9.60;8.37;
12542;PMS3003;6337;49.556;25.594;2023-04-15T02:02:46;9.57;7.73;
12542;PMS3003;6337;49.556;25.594;2023-04-15T02:05:14;12.93;7.87;
12542;PMS3003;6337;49.556;25.594;2023-04-15T02:07:43;12.57;7.43;
12542;PMS3003;6337;49.556;25.594;2023-04-15T02:10:11;10.90;7.43;
12542;PMS3003;6337;49.556;25.594;2023-04-15T02:12:40;12.43;9.03;
12542;PMS3003;6337;49.556;25.594;2023-04-15T02:15:08;11.00;9.07;
12542;PMS3003;6337;49.556;25.594;2023-04-15T02:17:38;14.80;8.80;
12542;PMS3003;6337;49.556;25.594;2023-04-15T02:20:11;12.60;8.33;
12542;PMS3003;6337;49.556;25.594;2023-04-15T02:22:39;10.53;8.10;
12542;PMS3003;6337;49.556;25.594;2023-04-15T02:25:07;11.27;7.40;
12542;PMS3003;6337;49.556;25.594;2023-04-15T02:27:38;10.37;7.93;
12542;PMS3003;6337;49.556;25.594;2023-04-15T02:30:06;14.27;9.27;
12542;PMS3003;6337;49.556;25.594;2023-04-15T02:32:34;14.67;8.13;
12542;PMS3003;6337;49.556;25.594;2023-04-15T02:35:05;11.27;7.50;
12542;PMS3003;6337;49.556;25.594;2023-04-15T02:37:35;11.47;9.33;
12542;PMS3003;6337;49.556;25.594;2023-04-15T02:40:07;12.40;8.80;
12542;PMS3003;6337;49.556;25.594;2023-04-15T02:42:36;14.77;8.73;
12542;PMS3003;6337;49.556;25.594;2023-04-15T02:45:04;11.80;8.57;
12542;PMS3003;6337;49.556;25.594;2023-04-15T02:47:34;16.97;9.57;
12542;PMS3003;6337;49.556;25.594;2023-04-15T02:50:06;15.13;11.17;
12542;PMS3003;6337;49.556;25.594;2023-04-15T02:52:36;10.87;9.07;
12542;PMS3003;6337;49.556;25.594;2023-04-15T02:55:04;14.80;9.20;
12542;PMS3003;6337;49.556;25.594;2023-04-15T02:57:34;10.40;8.73;
12542;PMS3003;6337;49.556;25.594;2023-04-15T03:00:03;11.83;10.00;
12542;PMS3003;6337;49.556;25.594;2023-04-15T03:02:33;18.07;10.20;
12542;PMS3003;6337;49.556;25.594;2023-04-15T03:05:01;14.70;10.00;
12542;PMS3003;6337;49.556;25.594;2023-04-15T03:07:33;18.83;9.97;
12542;PMS3003;6337;49.556;25.594;2023-04-15T03:10:02;16.20;9.90;
12542;PMS3003;6337;49.556;25.594;2023-04-15T03:12:32;13.40;9.63;
12542;PMS3003;6337;49.556;25.594;2023-04-15T03:15:02;11.93;8.93;
12542;PMS3003;6337;49.556;25.594;2023-04-15T03:17:30;15.07;9.73;
12542;PMS3003;6337;49.556;25.594;2023-04-15T03:19:58;14.90;8.40;
12542;PMS3003;6337;49.556;25.594;2023-04-15T03:22:27;12.43;8.97;
12542;PMS3003;6337;49.556;25.594;2023-04-15T03:24:56;20.03;9.70;
12542;PMS3003;6337;49.556;25.594;2023-04-15T03:27:24;10.30;8.77;
12542;PMS3003;6337;49.556;25.594;2023-04-15T03:29:52;22.93;10.13;
12542;PMS3003;6337;49.556;25.594;2023-04-15T03:32:21;14.20;10.00;
12542;PMS3003;6337;49.556;25.594;2023-04-15T03:34:51;14.93;10.23;
12542;PMS3003;6337;49.556;25.594;2023-04-15T03:37:18;13.43;10.27;
12542;PMS3003;6337;49.556;25.594;2023-04-15T03:39:46;12.53;9.37;
12542;PMS3003;6337;49.556;25.594;2023-04-15T03:42:15;16.03;11.17;
12542;PMS3003;6337;49.556;25.594;2023-04-15T03:44:43;14.60;9.80;
12542;PMS3003;6337;49.556;25.594;2023-04-15T03:47:10;15.63;10.20;
12542;PMS3003;6337;49.556;25.594;2023-04-15T03:49:38;17.70;10.07;
12542;PMS3003;6337;49.556;25.594;2023-04-15T03:52:06;11.67;8.70;
12542;PMS3003;6337;49.556;25.594;2023-04-15T03:54:33;16.30;11.20;
12542;PMS3003;6337;49.556;25.594;2023-04-15T03:57:00;18.20;11.90;
12542;PMS3003;6337;49.556;25.594;2023-04-15T03:59:30;15.13;11.10;
12542;PMS3003;6337;49.556;25.594;2023-04-15T04:01:58;14.37;11.40;
12542;PMS3003;6337;49.556;25.594;2023-04-15T04:04:25;14.40;11.20;
12542;PMS3003;6337;49.556;25.594;2023-04-15T04:06:53;15.37;10.67;
12542;PMS3003;6337;49.556;25.594;2023-04-15T04:09:21;18.43;10.50;
12542;PMS3003;6337;49.556;25.594;2023-04-15T04:11:48;16.43;10.80;
12542;PMS3003;6337;49.556;25.594;2023-04-15T04:14:16;19.07;10.00;
12542;PMS3003;6337;49.556;25.594;2023-04-15T04:16:46;18.30;12.27;
12542;PMS3003;6337;49.556;25.594;2023-04-15T04:19:13;17.03;10.87;
12542;PMS3003;6337;49.556;25.594;2023-04-15T04:21:43;14.67;9.80;
12542;PMS3003;6337;49.556;25.594;2023-04-15T04:24:11;25.23;11.70;
12542;PMS3003;6337;49.556;25.594;2023-04-15T04:26:39;22.03;11.43;
12542;PMS3003;6337;49.556;25.594;2023-04-15T04:29:06;18.43;12.37;
12542;PMS3003;6337;49.556;25.594;2023-04-15T04:31:34;11.77;9.40;
12542;PMS3003;6337;49.556;25.594;2023-04-15T04:34:03;13.53;9.93;
12542;PMS3003;6337;49.556;25.594;2023-04-15T04:36:31;13.97;9.50;
12542;PMS3003;6337;49.556;25.594;2023-04-15T04:38:58;13.70;9.70;
12542;PMS3003;6337;49.556;25.594;2023-04-15T04:41:26;19.23;11.13;
12542;PMS3003;6337;49.556;25.594;2023-04-15T04:43:54;14.43;9.40;
12542;PMS3003;6337;49.556;25.594;2023-04-15T04:46:21;16.97;10.80;
12542;PMS3003;6337;49.556;25.594;2023-04-15T04:48:50;15.37;11.23;
12542;PMS3003;6337;49.556;25.594;2023-04-15T04:51:19;15.27;10.67;
12542;PMS3003;6337;49.556;25.594;2023-04-15T04:53:47;29.83;10.30;
12542;PMS3003;6337;49.556;25.594;2023-04-15T04:56:14;16.10;10.47;
12542;PMS3003;6337;49.556;25.594;2023-04-15T04:58:42;14.63;11.20;
12542;PMS3003;6337;49.556;25.594;2023-04-15T05:01:11;19.60;10.40;
12542;PMS3003;6337;49.556;25.594;2023-04-15T05:03:38;12.60;9.90;
12542;PMS3003;6337;49.556;25.594;2023-04-15T05:06:06;20.20;11.80;
12542;PMS3003;6337;49.556;25.594;2023-04-15T05:08:35;13.77;10.40;
12542;PMS3003;6337;49.556;25.594;2023-04-15T05:11:03;16.87;11.63;
12542;PMS3003;6337;49.556;25.594;2023-04-15T05:13:30;13.73;10.07;
12542;PMS3003;6337;49.556;25.594;2023-04-15T05:15:58;18.57;12.97;
12542;PMS3003;6337;49.556;25.594;2023-04-15T05:18:25;15.57;10.10;
12542;PMS3003;6337;49.556;25.594;2023-04-15T05:20:53;17.53;10.60;
12542;PMS3003;6337;49.556;25.594;2023-04-15T05:23:20;19.17;11.43;
12542;PMS3003;6337;49.556;25.594;2023-04-15T05:25:49;26.30;12.00;
12542;PMS3003;6337;49.556;25.594;2023-04-15T05:28:17;15.30;11.53;
12542;PMS3003;6337;49.556;25.594;2023-04-15T05:30:45;14.50;12.00;
12542;PMS3003;6337;49.556;25.594;2023-04-15T05:33:13;19.63;11.97;
12542;PMS3003;6337;49.556;25.594;2023-04-15T05:35:41;20.50;13.33;
12542;PMS3003;6337;49.556;25.594;2023-04-15T05:38:08;21.90;12.80;
12542;PMS3003;6337;49.556;25.594;2023-04-15T05:40:36;24.43;11.60;
12542;PMS3003;6337;49.556;25.594;2023-04-15T05:43:06;23.57;13.40;
12542;PMS3003;6337;49.556;25.594;2023-04-15T05:45:36;18.77;11.90;
12542;PMS3003;6337;49.556;25.594;2023-04-15T05:48:03;20.57;13.13;
12542;PMS3003;6337;49.556;25.594;2023-04-15T05:50:31;19.60;13.70;
12542;PMS3003;6337;49.556;25.594;2023-04-15T05:52:59;25.00;14.37;
12542;PMS3003;6337;49.556;25.594;2023-04-15T05:55:26;27.17;13.63;
12542;PMS3003;6337;49.556;25.594;2023-04-15T05:57:54;27.20;14.30;
12542;PMS3003;6337;49.556;25.594;2023-04-15T06:00:23;22.33;14.60;
12542;PMS3003;6337;49.556;25.594;2023-04-15T06:02:51;24.93;14.70;
12542;PMS3003;6337;49.556;25.594;2023-04-15T06:05:19;20.83;13.40;
12542;PMS3003;6337;49.556;25.594;2023-04-15T06:07:47;19.50;13.47;
12542;PMS3003;6337;49.556;25.594;2023-04-15T06:10:14;20.57;12.80;
12542;PMS3003;6337;49.556;25.594;2023-04-15T06:12:42;18.60;13.50;
12542;PMS3003;6337;49.556;25.594;2023-04-15T06:15:10;19.13;12.77;
12542;PMS3003;6337;49.556;25.594;2023-04-15T06:17:39;20.87;13.33;
12542;PMS3003;6337;49.556;25.594;2023-04-15T06:20:07;20.60;12.97;
12542;PMS3003;6337;49.556;25.594;2023-04-15T06:22:35;13.33;10.90;
12542;PMS3003;6337;49.556;25.594;2023-04-15T06:25:03;27.13;14.47;
12542;PMS3003;6337;49.556;25.594;2023-04-15T06:27:32;21.47;14.70;
12542;PMS3003;6337;49.556;25.594;2023-04-15T06:30:00;21.57;14.27;
12542;PMS3003;6337;49.556;25.594;2023-04-15T06:32:27;17.97;12.80;
12542;PMS3003;6337;49.556;25.594;2023-04-15T06:34:57;19.13;13.33;
12542;PMS3003;6337;49.556;25.594;2023-04-15T06:37:24;20.03;11.80;
12542;PMS3003;6337;49.556;25.594;2023-04-15T06:39:52;17.27;10.97;
12542;PMS3003;6337;49.556;25.594;2023-04-15T06:42:19;13.87;9.47;
12542;PMS3003;6337;49.556;25.594;2023-04-15T06:44:47;13.63;9.10;
12542;PMS3003;6337;49.556;25.594;2023-04-15T06:47:15;18.03;12.20;
12542;PMS3003;6337;49.556;25.594;2023-04-15T06:49:45;14.47;10.53;
12542;PMS3003;6337;49.556;25.594;2023-04-15T06:52:14;16.10;10.70;
12542;PMS3003;6337;49.556;25.594;2023-04-15T06:54:42;17.77;11.33;
12542;PMS3003;6337;49.556;25.594;2023-04-15T06:57:10;15.50;11.40;
12542;PMS3003;6337;49.556;25.594;2023-04-15T06:59:38;18.47;10.27;
12542;PMS3003;6337;49.556;25.594;2023-04-15T07:02:05;14.73;9.60;
12542;PMS3003;6337;49.556;25.594;2023-04-15T07:04:35;11.63;9.23;
12542;PMS3003;6337;49.556;25.594;2023-04-15T07:07:05;11.70;10.00;
12542;PMS3003;6337;49.556;25.594;2023-04-15T07:09:35;14.97;10.10;
12542;PMS3003;6337;49.556;25.594;2023-04-15T07:12:02;11.40;8.77;
12542;PMS3003;6337;49.556;25.594;2023-04-15T07:14:33;12.57;9.17;
12542;PMS3003;6337;49.556;25.594;2023-04-15T07:17:01;18.30;9.63;
12542;PMS3003;6337;49.556;25.594;2023-04-15T07:19:28;13.73;7.97;
12542;PMS3003;6337;49.556;25.594;2023-04-15T07:21:57;9.90;8.10;
12542;PMS3003;6337;49.556;25.594;2023-04-15T07:24:30;15.10;9.90;
12542;PMS3003;6337;49.556;25.594;2023-04-15T07:27:01;12.20;8.33;
12542;PMS3003;6337;49.556;25.594;2023-04-15T07:29:32;9.87;8.07;
12542;PMS3003;6337;49.556;25.594;2023-04-15T07:31:59;11.20;7.93;
12542;PMS3003;6337;49.556;25.594;2023-04-15T07:34:28;11.03;8.10;
12542;PMS3003;6337;49.556;25.594;2023-04-15T07:36:58;10.43;8.03;
12542;PMS3003;6337;49.556;25.594;2023-04-15T07:39:26;13.40;9.00;
12542;PMS3003;6337;49.556;25.594;2023-04-15T07:41:54;7.70;6.40;
12542;PMS3003;6337;49.556;25.594;2023-04-15T07:44:26;11.37;7.57;
12542;PMS3003;6337;49.556;25.594;2023-04-15T07:46:53;7.00;5.93;
12542;PMS3003;6337;49.556;25.594;2023-04-15T07:49:23;9.10;6.37;
12542;PMS3003;6337;49.556;25.594;2023-04-15T07:51:50;6.73;6.13;
12542;PMS3003;6337;49.556;25.594;2023-04-15T07:54:18;5.57;5.07;
12542;PMS3003;6337;49.556;25.594;2023-04-15T07:56:46;7.80;5.13;
12542;PMS3003;6337;49.556;25.594;2023-04-15T07:59:14;6.17;5.30;
12542;PMS3003;6337;49.556;25.594;2023-04-15T08:01:51;7.20;5.10;
12542;PMS3003;6337;49.556;25.594;2023-04-15T08:04:19;7.97;6.03;
12542;PMS3003;6337;49.556;25.594;2023-04-15T08:06:49;7.03;5.77;
12542;PMS3003;6337;49.556;25.594;2023-04-15T08:09:16;6.33;4.20;
12542;PMS3003;6337;49.556;25.594;2023-04-15T08:11:46;4.07;3.73;
12542;PMS3003;6337;49.556;25.594;2023-04-15T08:14:16;4.33;3.83;
12542;PMS3003;6337;49.556;25.594;2023-04-15T08:16:44;5.37;4.87;
12542;PMS3003;6337;49.556;25.594;2023-04-15T08:19:14;4.20;3.63;
12542;PMS3003;6337;49.556;25.594;2023-04-15T08:21:41;7.30;4.13;
12542;PMS3003;6337;49.556;25.594;2023-04-15T08:24:09;5.30;4.77;
12542;PMS3003;6337;49.556;25.594;2023-04-15T08:26:38;6.70;4.50;
12542;PMS3003;6337;49.556;25.594;2023-04-15T08:29:11;4.13;3.63;
12542;PMS3003;6337;49.556;25.594;2023-04-15T08:31:38;4.10;3.70;
12542;PMS3003;6337;49.556;25.594;2023-04-15T08:34:06;4.00;3.57;
12542;PMS3003;6337;49.556;25.594;2023-04-15T08:36:36;3.80;2.60;
12542;PMS3003;6337;49.556;25.594;2023-04-15T08:39:04;3.37;3.07;
12542;PMS3003;6337;49.556;25.594;2023-04-15T08:41:33;3.27;2.97;
12542;PMS3003;6337;49.556;25.594;2023-04-15T08:44:02;3.80;3.50;
12542;PMS3003;6337;49.556;25.594;2023-04-15T08:46:31;4.63;3.83;
12542;PMS3003;6337;49.556;25.594;2023-04-15T08:49:02;3.03;2.73;
12542;PMS3003;6337;49.556;25.594;2023-04-15T08:51:31;2.50;2.40;
12542;PMS3003;6337;49.556;25.594;2023-04-15T08:54:02;2.70;2.50;
12542;PMS3003;6337;49.556;25.594;2023-04-15T08:56:31;3.20;3.00;
12542;PMS3003;6337;49.556;25.594;2023-04-15T08:59:01;2.80;2.60;
12542;PMS3003;6337;49.556;25.594;2023-04-15T09:01:29;2.53;2.30;
12542;PMS3003;6337;49.556;25.594;2023-04-15T09:03:59;2.73;2.53;
12542;PMS3003;6337;49.556;25.594;2023-04-15T09:06:28;2.63;2.43;
12542;PMS3003;6337;49.556;25.594;2023-04-15T09:08:57;2.80;2.60;
12542;PMS3003;6337;49.556;25.594;2023-04-15T09:11:33;4.83;3.10;
12542;PMS3003;6337;49.556;25.594;2023-04-15T09:14:01;3.40;3.20;
12542;PMS3003;6337;49.556;25.594;2023-04-15T09:16:30;3.03;2.83;
12542;PMS3003;6337;49.556;25.594;2023-04-15T09:18:58;5.33;3.17;
12542;PMS3003;6337;49.556;25.594;2023-04-15T09:21:26;2.30;2.20;
12542;PMS3003;6337;49.556;25.594;2023-04-15T09:23:54;6.50;3.17;
12542;PMS3003;6337;49.556;25.594;2023-04-15T09:26:36;2.90;2.60;
12542;PMS3003;6337;49.556;25.594;2023-04-15T09:29:08;3.60;3.30;
12542;PMS3003;6337;49.556;25.594;2023-04-15T09:31:37;2.10;2.00;
12542;PMS3003;6337;49.556;25.594;2023-04-15T09:34:05;3.37;2.60;
12542;PMS3003;6337;49.556;25.594;2023-04-15T09:36:52;4.20;3.03;
12542;PMS3003;6337;49.556;25.594;2023-04-15T09:39:21;6.53;2.10;
12542;PMS3003;6337;49.556;25.594;2023-04-15T09:44:36;2.53;2.43;
12542;PMS3003;6337;49.556;25.594;2023-04-15T09:47:03;2.60;2.40;
12542;PMS3003;6337;49.556;25.594;2023-04-15T09:49:33;3.13;2.93;
12542;PMS3003;6337;49.556;25.594;2023-04-15T09:52:01;3.00;2.80;
12542;PMS3003;6337;49.556;25.594;2023-04-15T09:54:34;2.60;2.40;
12542;PMS3003;6337;49.556;25.594;2023-04-15T09:57:05;7.50;2.73;
12542;PMS3003;6337;49.556;25.594;2023-04-15T09:59:35;2.97;2.80;
12542;PMS3003;6337;49.556;25.594;2023-04-15T10:02:03;2.73;2.53;
12542;PMS3003;6337;49.556;25.594;2023-04-15T10:04:34;2.13;2.03;
12542;PMS3003;6337;49.556;25.594;2023-04-15T10:07:02;3.47;3.17;
12542;PMS3003;6337;49.556;25.594;2023-04-15T10:09:31;2.50;2.30;
12542;PMS3003;6337;49.556;25.594;2023-04-15T10:12:00;3.23;3.00;
12542;PMS3003;6337;49.556;25.594;2023-04-15T10:14:30;2.77;2.57;
12542;PMS3003;6337;49.556;25.594;2023-04-15T10:17:01;2.50;2.40;
12542;PMS3003;6337;49.556;25.594;2023-04-15T10:19:30;3.80;2.90;
12542;PMS3003;6337;49.556;25.594;2023-04-15T10:21:59;3.23;3.03;
12542;PMS3003;6337;49.556;25.594;2023-04-15T10:24:31;3.20;2.90;
12542;PMS3003;6337;49.556;25.594;2023-04-15T10:26:59;2.63;2.43;
12542;PMS3003;6337;49.556;25.594;2023-04-15T10:29:28;4.27;2.80;
12542;PMS3003;6337;49.556;25.594;2023-04-15T10:31:56;4.47;4.07;
12542;PMS3003;6337;49.556;25.594;2023-04-15T10:34:27;3.07;2.93;
12542;PMS3003;6337;49.556;25.594;2023-04-15T10:36:56;3.97;3.73;
12542;PMS3003;6337;49.556;25.594;2023-04-15T10:39:38;3.57;3.27;
12542;PMS3003;6337;49.556;25.594;2023-04-15T10:42:07;5.13;4.63;
12542;PMS3003;6337;49.556;25.594;2023-04-15T10:44:36;4.97;4.50;
12542;PMS3003;6337;49.556;25.594;2023-04-15T10:47:06;5.13;4.63;
12542;PMS3003;6337;49.556;25.594;2023-04-15T10:49:44;5.53;4.30;
12542;PMS3003;6337;49.556;25.594;2023-04-15T10:52:13;4.80;4.40;
12542;PMS3003;6337;49.556;25.594;2023-04-15T10:54:43;5.20;4.70;
12542;PMS3003;6337;49.556;25.594;2023-04-15T10:57:16;5.47;4.60;
12542;PMS3003;6337;49.556;25.594;2023-04-15T11:00:02;6.57;5.13;
12542;PMS3003;6337;49.556;25.594;2023-04-15T11:02:38;7.17;6.17;
12542;PMS3003;6337;49.556;25.594;2023-04-15T11:05:11;9.03;4.20;
12542;PMS3003;6337;49.556;25.594;2023-04-15T11:07:51;6.37;5.07;
12542;PMS3003;6337;49.556;25.594;2023-04-15T11:13:24;4.83;3.93;
12542;PMS3003;6337;49.556;25.594;2023-04-15T11:15:57;5.83;5.30;
12542;PMS3003;6337;49.556;25.594;2023-04-15T11:18:26;5.07;4.63;
12542;PMS3003;6337;49.556;25.594;2023-04-15T11:20:56;10.37;6.90;
12542;PMS3003;6337;49.556;25.594;2023-04-15T11:23:29;7.47;5.13;
12542;PMS3003;6337;49.556;25.594;2023-04-15T11:25:57;6.93;5.50;
12542;PMS3003;6337;49.556;25.594;2023-04-15T11:28:25;5.87;5.37;
12542;PMS3003;6337;49.556;25.594;2023-04-15T11:30:53;5.90;4.80;
12542;PMS3003;6337;49.556;25.594;2023-04-15T11:33:21;5.27;4.67;
12542;PMS3003;6337;49.556;25.594;2023-04-15T11:35:51;5.50;4.20;
12542;PMS3003;6337;49.556;25.594;2023-04-15T11:38:21;5.70;4.83;
12542;PMS3003;6337;49.556;25.594;2023-04-15T11:40:50;5.13;4.53;
12542;PMS3003;6337;49.556;25.594;2023-04-15T11:43:35;4.40;4.00;
12542;PMS3003;6337;49.556;25.594;2023-04-15T11:46:03;5.00;3.97;
12542;PMS3003;6337;49.556;25.594;2023-04-15T11:48:31;4.53;4.13;
12542;PMS3003;6337;49.556;25.594;2023-04-15T11:50:59;5.17;4.67;
12542;PMS3003;6337;49.556;25.594;2023-04-15T11:53:39;5.23;4.10;
12542;PMS3003;6337;49.556;25.594;2023-04-15T11:56:07;6.87;6.13;
12542;PMS3003;6337;49.556;25.594;2023-04-15T11:58:37;5.73;5.10;
12542;PMS3003;6337;49.556;25.594;2023-04-15T12:01:06;6.90;4.97;
12542;PMS3003;6337;49.556;25.594;2023-04-15T12:03:37;5.97;5.17;
12542;PMS3003;6337;49.556;25.594;2023-04-15T12:06:06;5.87;5.20;
12542;PMS3003;6337;49.556;25.594;2023-04-15T12:11:19;6.53;5.73;
12542;PMS3003;6337;49.556;25.594;2023-04-15T12:13:48;5.53;4.87;
12542;PMS3003;6337;49.556;25.594;2023-04-15T12:16:16;5.37;4.87;
12542;PMS3003;6337;49.556;25.594;2023-04-15T12:18:44;5.33;4.93;
12542;PMS3003;6337;49.556;25.594;2023-04-15T12:21:12;7.40;4.40;
12542;PMS3003;6337;49.556;25.594;2023-04-15T12:23:46;5.50;3.90;
12542;PMS3003;6337;49.556;25.594;2023-04-15T12:26:15;3.47;3.17;
12542;PMS3003;6337;49.556;25.594;2023-04-15T12:28:44;3.60;3.40;
12542;PMS3003;6337;49.556;25.594;2023-04-15T12:31:12;4.50;4.20;
12542;PMS3003;6337;49.556;25.594;2023-04-15T12:33:40;3.80;3.50;
12542;PMS3003;6337;49.556;25.594;2023-04-15T12:36:09;4.60;4.20;
12542;PMS3003;6337;49.556;25.594;2023-04-15T12:38:36;3.93;3.63;
12542;PMS3003;6337;49.556;25.594;2023-04-15T12:41:04;4.20;3.90;
12542;PMS3003;6337;49.556;25.594;2023-04-15T12:43:31;4.83;4.43;
12542;PMS3003;6337;49.556;25.594;2023-04-15T12:46:02;5.63;4.93;
12542;PMS3003;6337;49.556;25.594;2023-04-15T12:48:32;4.77;4.27;
12542;PMS3003;6337;49.556;25.594;2023-04-15T12:50:59;5.10;4.63;
12542;PMS3003;6337;49.556;25.594;2023-04-15T12:53:27;4.53;4.13;
12542;PMS3003;6337;49.556;25.594;2023-04-15T12:55:55;5.47;5.07;
12542;PMS3003;6337;49.556;25.594;2023-04-15T12:58:22;6.73;5.10;
12542;PMS3003;6337;49.556;25.594;2023-04-15T13:00:50;6.83;5.30;
12542;PMS3003;6337;49.556;25.594;2023-04-15T13:03:27;16.10;10.07;
12542;PMS3003;6337;49.556;25.594;2023-04-15T13:05:55;11.03;7.27;
12542;PMS3003;6337;49.556;25.594;2023-04-15T13:08:24;8.60;5.80;
12542;PMS3003;6337;49.556;25.594;2023-04-15T13:10:53;7.33;6.67;
12542;PMS3003;6337;49.556;25.594;2023-04-15T13:13:21;8.97;8.07;
12542;PMS3003;6337;49.556;25.594;2023-04-15T13:15:48;15.50;10.30;
12542;PMS3003;6337;49.556;25.594;2023-04-15T13:18:16;5.50;4.97;
12542;PMS3003;6337;49.556;25.594;2023-04-15T13:20:51;5.87;5.40;
12542;PMS3003;6337;49.556;25.594;2023-04-15T13:23:18;8.07;5.73;
12542;PMS3003;6337;49.556;25.594;2023-04-15T13:25:53;8.70;6.23;
12542;PMS3003;6337;49.556;25.594;2023-04-15T13:28:21;10.80;8.50;
12542;PMS3003;6337;49.556;25.594;2023-04-15T13:30:49;17.10;11.80;
12542;PMS3003;6337;49.556;25.594;2023-04-15T13:33:22;27.30;15.70;
12542;PMS3003;6337;49.556;25.594;2023-04-15T13:35:52;14.50;9.80;
12542;PMS3003;6337;49.556;25.594;2023-04-15T13:38:19;15.97;8.50;
12542;PMS3003;6337;49.556;25.594;2023-04-15T13:40:48;7.77;5.87;
12542;PMS3003;6337;49.556;25.594;2023-04-15T13:43:16;8.43;7.17;
12542;PMS3003;6337;49.556;25.594;2023-04-15T13:45:45;7.17;5.83;
12542;PMS3003;6337;49.556;25.594;2023-04-15T13:48:13;7.40;5.43;
12542;PMS3003;6337;49.556;25.594;2023-04-15T13:50:40;8.73;5.40;
12542;PMS3003;6337;49.556;25.594;2023-04-15T13:53:11;5.57;5.07;
12542;PMS3003;6337;49.556;25.594;2023-04-15T13:55:38;5.93;4.70;
12542;PMS3003;6337;49.556;25.594;2023-04-15T13:58:07;7.30;5.23;
12542;PMS3003;6337;49.556;25.594;2023-04-15T14:00:34;4.73;4.27;
12542;PMS3003;6337;49.556;25.594;2023-04-15T14:03:02;5.03;4.53;
12542;PMS3003;6337;49.556;25.594;2023-04-15T14:05:30;8.23;6.10;
12542;PMS3003;6337;49.556;25.594;2023-04-15T14:07:58;6.10;4.87;
12542;PMS3003;6337;49.556;25.594;2023-04-15T14:10:28;10.10;7.53;
12542;PMS3003;6337;49.556;25.594;2023-04-15T14:12:56;10.83;8.30;
12542;PMS3003;6337;49.556;25.594;2023-04-15T14:15:24;7.60;5.67;
12542;PMS3003;6337;49.556;25.594;2023-04-15T14:17:52;6.97;4.83;
12542;PMS3003;6337;49.556;25.594;2023-04-15T14:20:20;6.03;5.17;
12542;PMS3003;6337;49.556;25.594;2023-04-15T14:22:48;16.17;7.00;
12542;PMS3003;6337;49.556;25.594;2023-04-15T14:25:18;9.33;7.27;
12542;PMS3003;6337;49.556;25.594;2023-04-15T14:27:47;10.73;5.80;
12542;PMS3003;6337;49.556;25.594;2023-04-15T14:30:15;8.10;5.90;
12542;PMS3003;6337;49.556;25.594;2023-04-15T14:32:43;6.50;5.83;
12542;PMS3003;6337;49.556;25.594;2023-04-15T14:35:10;6.57;5.43;
12542;PMS3003;6337;49.556;25.594;2023-04-15T14:37:38;4.93;4.43;
12542;PMS3003;6337;49.556;25.594;2023-04-15T14:40:06;5.10;4.60;
12542;PMS3003;6337;49.556;25.594;2023-04-15T14:42:34;7.30;5.40;
12542;PMS3003;6337;49.556;25.594;2023-04-15T14:45:05;6.13;4.87;
12542;PMS3003;6337;49.556;25.594;2023-04-15T14:47:32;6.40;4.07;
12542;PMS3003;6337;49.556;25.594;2023-04-15T14:50:00;4.43;4.10;
12542;PMS3003;6337;49.556;25.594;2023-04-15T14:52:29;5.53;4.77;
12542;PMS3003;6337;49.556;25.594;2023-04-15T14:54:58;6.67;5.30;
12542;PMS3003;6337;49.556;25.594;2023-04-15T14:57:27;9.37;5.70;
12542;PMS3003;6337;49.556;25.594;2023-04-15T14:59:54;4.40;3.80;
12542;PMS3003;6337;49.556;25.594;2023-04-15T15:02:26;4.67;4.17;
12542;PMS3003;6337;49.556;25.594;2023-04-15T15:04:56;5.07;4.00;
12542;PMS3003;6337;49.556;25.594;2023-04-15T15:07:25;7.67;4.73;
12542;PMS3003;6337;49.556;25.594;2023-04-15T15:09:53;12.87;5.30;
12542;PMS3003;6337;49.556;25.594;2023-04-15T15:12:20;4.53;4.23;
12542;PMS3003;6337;49.556;25.594;2023-04-15T15:14:48;4.33;4.03;
12542;PMS3003;6337;49.556;25.594;2023-04-15T15:17:16;5.27;4.83;
12542;PMS3003;6337;49.556;25.594;2023-04-15T15:19:46;4.87;4.30;
12542;PMS3003;6337;49.556;25.594;2023-04-15T15:22:14;4.47;4.17;
12542;PMS3003;6337;49.556;25.594;2023-04-15T15:24:42;6.90;5.90;